Time;durP1;ratioP1;P1;durP2;ratioP2;P2;SDS_P1;SDS_P2;PMS_P1;PMS_P2;Temp;Humidity;BMP_temperature;BMP_pressure;BME280_temperature;BME280_humidity;BME280_pressure;Samples;Min_cycle;Max_cycle;Signal;HPM_P1;HPM_P2
2023/12/30 00:01:36;;;;;;;0.40;0.40;;;;;;;5.07;100.00;100878.06;5029342;28;20477;-78
2023/12/30 00:04:02;;;;;;;1.48;1.35;;;;;;;4.66;100.00;100778.94;5029554;28;20626;-76
2023/12/30 00:06:28;;;;;;;4.40;4.20;;;;;;;4.85;100.00;100827.16;5033365;28;20037;-76
2023/12/30 00:08:53;;;;;;;1.08;1.08;;;;;;;4.64;100.00;100771.06;5030357;28;20497;-75
2023/12/30 00:11:19;;;;;;;2.78;2.60;;;;;;;4.68;100.00;100781.56;5024664;28;20488;-75
2023/12/30 00:13:44;;;;;;;0.98;0.98;;;;;;;5.14;100.00;100893.00;5029193;28;20033;-76
2023/12/30 00:16:13;;;;;;;3.25;3.15;;;;;;;4.51;100.00;100781.06;5039882;28;20087;-76
2023/12/30 00:18:39;;;;;;;12.73;6.25;;;;;;;4.91;100.00;100853.31;5031568;28;20114;-76
2023/12/30 00:21:05;;;;;;;0.68;0.68;;;;;;;4.91;100.00;100861.13;5035894;28;20073;-76
2023/12/30 00:23:30;;;;;;;4.07;3.83;;;;;;;4.80;100.00;100855.59;5028435;28;20535;-76
2023/12/30 00:25:56;;;;;;;0.30;0.30;;;;;;;4.94;100.00;100879.44;5031541;28;20061;-76
2023/12/30 00:28:21;;;;;;;2.38;2.28;;;;;;;4.89;100.00;100864.50;5034715;28;20053;-76
2023/12/30 00:30:47;;;;;;;15.38;5.97;;;;;;;4.41;100.00;100798.09;5013730;28;20048;-76
2023/12/30 00:33:13;;;;;;;2.00;1.33;;;;;;;4.11;100.00;100769.41;5028589;28;20460;-75
2023/12/30 00:35:40;;;;;;;0.32;0.32;;;;;;;4.12;100.00;100776.38;5036266;28;20135;-76
2023/12/30 00:38:06;;;;;;;0.30;0.30;;;;;;;4.18;100.00;100873.53;5023432;28;20485;-77
2023/12/30 00:40:31;;;;;;;3.97;3.70;;;;;;;4.67;100.00;100895.03;5022535;28;20037;-76
2023/12/30 00:42:57;;;;;;;0.43;0.43;;;;;;;4.11;100.00;100800.59;5014300;28;20048;-76
2023/12/30 00:45:22;;;;;;;0.40;0.40;;;;;;;4.46;100.00;100835.47;5038111;28;20057;-75
2023/12/30 00:47:48;;;;;;;0.65;0.60;;;;;;;4.85;100.00;100889.53;5023282;28;20081;-76
2023/12/30 00:50:13;;;;;;;2.67;2.58;;;;;;;4.64;100.00;100871.56;5027234;28;20049;-77
2023/12/30 00:52:40;;;;;;;1.88;1.77;;;;;;;4.31;100.00;100819.38;5028661;28;20029;-77
2023/12/30 00:55:06;;;;;;;0.50;0.50;;;;;;;4.63;100.00;100869.78;5028281;28;20691;-75
2023/12/30 00:57:32;;;;;;;4.50;4.13;;;;;;;4.75;100.00;100890.97;5018293;28;20041;-75
2023/12/30 00:59:57;;;;;;;0.93;0.88;;;;;;;4.53;100.00;100883.31;5028472;28;20873;-76
2023/12/30 01:02:23;;;;;;;0.85;0.85;;;;;;;3.98;100.00;100781.09;5030778;28;20416;-76
2023/12/30 01:04:48;;;;;;;23.17;19.98;;;;;;;4.65;100.00;100900.19;5033406;28;20168;-75
2023/12/30 01:07:14;;;;;;;0.73;0.73;;;;;;;4.32;100.00;100813.38;5026185;28;20033;-76
2023/12/30 01:09:39;;;;;;;1.58;1.48;;;;;;;4.41;100.00;100819.75;5015710;28;20421;-76
2023/12/30 01:12:05;;;;;;;2.60;2.50;;;;;;;4.22;100.00;100801.81;5026079;28;20140;-76
2023/12/30 01:14:31;;;;;;;0.30;0.30;;;;;;;4.40;100.00;100835.28;5009116;28;20055;-76
2023/12/30 01:16:56;;;;;;;2.63;2.42;;;;;;;4.16;100.00;100799.88;5032677;28;20358;-76
2023/12/30 01:19:23;;;;;;;0.40;0.40;;;;;;;4.82;100.00;100894.63;5028977;28;20124;-76
2023/12/30 01:21:50;;;;;;;0.63;0.63;;;;;;;4.58;100.00;100856.63;5033342;28;20044;-76
2023/12/30 01:24:16;;;;;;;17.73;12.98;;;;;;;4.35;100.00;100811.75;5029032;28;20077;-76
2023/12/30 01:26:41;;;;;;;3.17;2.83;;;;;;;4.74;100.00;100903.91;5021468;28;20594;-77
2023/12/30 01:29:07;;;;;;;2.25;2.15;;;;;;;4.03;100.00;100758.81;4897133;28;3657038;-75
2023/12/30 01:31:34;;;;;;;2.20;2.05;;;;;;;4.75;100.00;100884.88;5035898;28;20405;-76
2023/12/30 01:34:00;;;;;;;1.40;1.30;;;;;;;4.67;100.00;100863.84;5030862;28;20036;-77
2023/12/30 01:36:25;;;;;;;11.70;10.80;;;;;;;4.05;100.00;100764.94;5023088;28;20049;-75
2023/12/30 01:38:51;;;;;;;2.10;2.00;;;;;;;4.10;100.00;100767.66;5019354;28;20099;-76
2023/12/30 01:41:20;;;;;;;0.30;0.30;;;;;;;4.27;100.00;100789.84;5021393;28;20045;-76
2023/12/30 01:43:46;;;;;;;0.77;0.77;;;;;;;4.75;100.00;100874.47;5017930;28;20472;-76
2023/12/30 01:46:12;;;;;;;0.30;0.30;;;;;;;3.97;100.00;100728.31;5023728;28;20041;-77
2023/12/30 01:48:38;;;;;;;0.43;0.43;;;;;;;4.75;100.00;100859.78;5005691;28;21615;-76
2023/12/30 01:51:07;;;;;;;0.70;0.70;;;;;;;4.74;100.00;100873.59;5021477;28;20526;-77
2023/12/30 01:53:36;;;;;;;0.30;0.30;;;;;;;4.56;100.00;100840.13;5018329;28;20056;-77
2023/12/30 01:56:02;;;;;;;0.30;0.30;;;;;;;4.57;100.00;100838.41;5029306;28;20053;-75
2023/12/30 01:58:27;;;;;;;0.80;0.77;;;;;;;4.03;100.00;100743.22;5030744;28;20036;-76
2023/12/30 02:00:55;;;;;;;0.60;0.60;;;;;;;4.02;100.00;100755.28;5019461;28;20045;-76
2023/12/30 02:03:21;;;;;;;6.55;6.28;;;;;;;4.13;100.00;100757.38;5019129;28;20096;-76
2023/12/30 02:05:48;;;;;;;0.85;0.85;;;;;;;4.58;100.00;100829.78;5015273;28;20033;-76
2023/12/30 02:08:17;;;;;;;0.60;0.60;;;;;;;4.74;100.00;100868.41;5017074;28;20053;-76
2023/12/30 02:10:42;;;;;;;22.48;8.25;;;;;;;3.26;100.00;100612.72;5031773;28;20049;-77
2023/12/30 02:13:09;;;;;;;0.40;0.40;;;;;;;4.06;100.00;100734.66;5018932;28;20057;-77
2023/12/30 02:15:36;;;;;;;0.40;0.40;;;;;;;4.11;100.00;100739.13;5024579;28;20060;-76
2023/12/30 02:18:02;;;;;;;0.40;0.40;;;;;;;4.42;100.00;100831.91;5025730;28;20068;-75
2023/12/30 02:20:28;;;;;;;2.45;2.35;;;;;;;4.33;100.00;100809.94;5025713;28;20077;-76
2023/12/30 02:22:54;;;;;;;6.65;6.18;;;;;;;4.49;100.00;100806.97;5029051;28;20072;-76
2023/12/30 02:25:19;;;;;;;0.45;0.45;;;;;;;3.95;100.00;100711.81;5028255;28;20485;-77
2023/12/30 02:27:45;;;;;;;0.57;0.57;;;;;;;4.22;100.00;100763.72;5002890;28;20080;-77
2023/12/30 02:30:12;;;;;;;0.30;0.30;;;;;;;4.60;100.00;100852.38;5007072;28;20140;-77
2023/12/30 02:32:38;;;;;;;3.40;2.97;;;;;;;4.14;100.00;100749.59;5026717;28;20037;-77
2023/12/30 02:35:04;;;;;;;1.52;1.48;;;;;;;4.63;100.00;100815.19;5027522;28;20050;-76
2023/12/30 02:37:29;;;;;;;2.55;2.03;;;;;;;4.42;100.00;100792.94;5028034;28;20420;-76
2023/12/30 02:39:55;;;;;;;0.45;0.45;;;;;;;3.82;100.00;100730.44;5023352;28;20747;-75
2023/12/30 02:42:20;;;;;;;6.35;6.07;;;;;;;4.41;100.00;100840.53;5028565;28;20080;-75
2023/12/30 02:44:46;;;;;;;1.35;1.25;;;;;;;3.87;100.00;100736.66;5021937;28;20133;-77
2023/12/30 02:47:12;;;;;;;0.30;0.30;;;;;;;4.39;100.00;100828.31;5025891;28;20048;-76
2023/12/30 02:49:42;;;;;;;0.30;0.30;;;;;;;4.64;100.00;100846.44;5026626;28;20032;-75
2023/12/30 02:52:08;;;;;;;0.30;0.30;;;;;;;4.45;100.00;100805.16;5030696;28;20086;-76
2023/12/30 02:54:35;;;;;;;0.63;0.63;;;;;;;4.17;100.00;100756.66;5023383;28;20045;-76
2023/12/30 02:57:02;;;;;;;2.28;1.52;;;;;;;4.60;100.00;100846.31;5021325;28;20052;-74
2023/12/30 02:59:28;;;;;;;0.40;0.40;;;;;;;3.99;100.00;100728.38;5024291;28;20045;-75
2023/12/30 03:01:54;;;;;;;3.72;3.50;;;;;;;4.40;100.00;100824.88;5027561;28;20405;-75
2023/12/30 03:04:20;;;;;;;1.40;1.38;;;;;;;4.52;100.00;100846.06;5018970;28;20041;-75
2023/12/30 03:06:45;;;;;;;1.65;1.55;;;;;;;3.98;100.00;100771.63;5018212;28;20052;-77
2023/12/30 03:09:11;;;;;;;0.30;0.30;;;;;;;4.38;100.00;100843.03;5023014;28;20053;-76
2023/12/30 03:11:37;;;;;;;5.47;5.07;;;;;;;3.80;100.00;100729.50;5024922;28;20589;-76
2023/12/30 03:14:03;;;;;;;2.22;2.03;;;;;;;4.28;100.00;100794.19;5004157;28;20040;-77
2023/12/30 03:16:28;;;;;;;0.50;0.50;;;;;;;3.97;100.00;100736.09;5019321;28;20137;-75
2023/12/30 03:18:55;;;;;;;0.40;0.40;;;;;;;4.06;100.00;100739.84;5031128;28;20034;-75
2023/12/30 03:21:20;;;;;;;0.95;0.85;;;;;;;3.92;100.00;100732.47;5022142;28;20438;-75
2023/12/30 03:23:46;;;;;;;0.73;0.73;;;;;;;4.33;100.00;100829.03;5019361;28;20049;-75
2023/12/30 03:26:12;;;;;;;1.95;1.85;;;;;;;4.30;100.00;100809.84;5026069;28;20133;-76
2023/12/30 03:28:37;;;;;;;0.40;0.40;;;;;;;4.02;100.00;100760.50;5033355;28;20505;-76
2023/12/30 03:31:03;;;;;;;1.05;1.05;;;;;;;4.60;100.00;100860.16;5023909;28;20456;-76
2023/12/30 03:33:29;;;;;;;0.50;0.50;;;;;;;4.38;100.00;100862.94;5024903;28;20045;-76
2023/12/30 03:35:55;;;;;;;0.65;0.65;;;;;;;4.15;100.00;100802.47;5032775;28;20053;-76
2023/12/30 03:38:20;;;;;;;0.30;0.30;;;;;;;4.38;100.00;100832.66;5021699;28;20051;-77
2023/12/30 03:40:46;;;;;;;7.60;7.22;;;;;;;4.53;100.00;100846.94;5029336;28;20025;-76
2023/12/30 03:43:13;;;;;;;0.30;0.30;;;;;;;3.85;100.00;100735.72;5026682;28;20400;-76
2023/12/30 03:45:39;;;;;;;0.40;0.40;;;;;;;4.68;100.00;100851.72;5022797;28;20060;-76
2023/12/30 03:48:05;;;;;;;0.52;0.52;;;;;;;4.45;100.00;100846.72;5030964;28;20053;-76
2023/12/30 03:50:30;;;;;;;0.20;0.20;;;;;;;3.99;100.00;100770.78;5024305;28;20584;-76
2023/12/30 03:52:56;;;;;;;0.75;0.75;;;;;;;4.54;100.00;100848.69;5024099;28;20129;-76
2023/12/30 03:55:21;;;;;;;1.67;1.60;;;;;;;4.70;100.00;100865.66;5026822;28;20134;-76
2023/12/30 03:57:47;;;;;;;0.50;0.50;;;;;;;4.48;100.00;100840.72;5028112;28;20056;-77
2023/12/30 04:00:13;;;;;;;1.17;0.55;;;;;;;4.64;100.00;100868.97;5025920;28;20925;-76
2023/12/30 04:02:40;;;;;;;0.40;0.40;;;;;;;4.60;100.00;100870.56;5028986;28;20049;-76
2023/12/30 04:05:05;;;;;;;6.13;3.40;;;;;;;4.63;100.00;100859.38;5022742;28;20053;-77
2023/12/30 04:07:32;;;;;;;0.30;0.30;;;;;;;3.82;100.00;100746.00;5027755;28;20082;-77
2023/12/30 04:09:58;;;;;;;3.15;2.95;;;;;;;4.48;100.00;100877.97;5025503;28;20049;-75
2023/12/30 04:12:23;;;;;;;1.92;1.38;;;;;;;3.93;100.00;100780.09;5022049;28;20050;-76
2023/12/30 04:14:49;;;;;;;0.50;0.50;;;;;;;4.25;100.00;100843.47;5024645;28;20672;-76
2023/12/30 04:17:14;;;;;;;4.57;1.40;;;;;;;4.21;100.00;100872.75;5023311;28;20111;-76
2023/12/30 04:19:40;;;;;;;0.20;0.20;;;;;;;3.68;100.00;100760.25;5029894;28;20032;-76
2023/12/30 04:22:05;;;;;;;0.40;0.40;;;;;;;4.34;100.00;100879.25;5028295;28;20041;-75
2023/12/30 04:24:31;;;;;;;1.67;1.05;;;;;;;3.73;100.00;100775.13;5027391;28;20044;-76
2023/12/30 04:26:56;;;;;;;0.60;0.60;;;;;;;4.21;100.00;100871.06;5016084;28;20045;-76
2023/12/30 04:29:22;;;;;;;0.73;0.73;;;;;;;4.06;100.00;100885.25;5032513;28;20224;-76
2023/12/30 04:31:48;;;;;;;1.08;0.88;;;;;;;3.62;100.00;100778.19;5024848;28;20119;-76
2023/12/30 04:34:14;;;;;;;0.85;0.85;;;;;;;4.18;100.00;100850.16;5029138;28;20106;-76
2023/12/30 04:36:40;;;;;;;0.45;0.45;;;;;;;4.35;100.00;100862.81;5028886;28;20076;-75
2023/12/30 04:39:05;;;;;;;5.85;5.47;;;;;;;3.86;100.00;100785.91;5030847;28;20187;-76
2023/12/30 04:41:31;;;;;;;0.50;0.50;;;;;;;3.83;100.00;100788.41;5028596;28;20040;-76
2023/12/30 04:43:57;;;;;;;1.13;1.13;;;;;;;4.38;100.00;100886.31;5021792;28;20055;-76
2023/12/30 04:46:22;;;;;;;10.40;9.75;;;;;;;3.74;100.00;100784.66;5021584;28;20478;-75
2023/12/30 04:48:52;;;;;;;0.68;0.68;;;;;;;3.56;100.00;100745.16;5032468;28;20174;-75
2023/12/30 04:51:18;;;;;;;0.77;0.77;;;;;;;4.05;100.00;100837.63;5006790;28;20054;-76
2023/12/30 04:53:44;;;;;;;0.50;0.50;;;;;;;4.23;100.00;100874.56;5036278;28;20110;-76
2023/12/30 04:56:19;;;;;;;2.33;1.88;;;;;;;3.62;100.00;100755.72;5020259;28;20046;-78
2023/12/30 04:58:44;;;;;;;8.55;6.93;;;;;;;3.42;100.00;100749.88;5030909;28;20037;-76
2023/12/30 05:01:11;;;;;;;2.25;2.15;;;;;;;4.03;100.00;100878.25;5028446;28;20671;-76
2023/12/30 05:03:37;;;;;;;0.60;0.60;;;;;;;3.92;100.00;100861.41;5025622;28;20460;-76
2023/12/30 05:06:03;;;;;;;7.78;7.28;;;;;;;3.74;100.00;100805.44;5023267;28;20037;-76
2023/12/30 05:08:29;;;;;;;1.40;1.30;;;;;;;3.55;100.00;100762.41;5028494;28;20043;-76
2023/12/30 05:10:55;;;;;;;0.38;0.38;;;;;;;4.18;100.00;100872.66;5025241;28;20041;-76
2023/12/30 05:13:20;;;;;;;4.57;4.25;;;;;;;3.52;100.00;100764.03;5035032;28;20064;-76
2023/12/30 05:15:46;;;;;;;0.38;0.38;;;;;;;4.12;100.00;100872.44;5026576;28;20519;-77
2023/12/30 05:18:12;;;;;;;1.67;1.00;;;;;;;4.02;100.00;100860.88;5024789;28;20072;-76
2023/12/30 05:20:37;;;;;;;0.32;0.32;;;;;;;4.12;100.00;100873.34;5030625;28;20041;-76
2023/12/30 05:23:03;;;;;;;4.22;4.03;;;;;;;4.13;100.00;100876.84;5028675;28;20493;-77
2023/12/30 05:25:29;;;;;;;0.57;0.57;;;;;;;3.49;100.00;100769.09;5043716;28;20040;-77
2023/12/30 05:27:55;;;;;;;0.73;0.73;;;;;;;3.79;100.00;100847.09;5021464;28;20500;-76
2023/12/30 05:30:20;;;;;;;1.63;1.52;;;;;;;3.87;100.00;100858.66;5033148;28;20405;-76
2023/12/30 05:32:45;;;;;;;1.67;1.58;;;;;;;4.02;100.00;100873.84;5032243;28;20053;-76
2023/12/30 05:35:11;;;;;;;4.57;4.32;;;;;;;3.98;100.00;100883.28;5007720;28;20080;-76
2023/12/30 05:37:37;;;;;;;0.65;0.40;;;;;;;4.09;100.00;100881.03;5023439;28;20126;-76
2023/12/30 05:40:06;;;;;;;0.30;0.30;;;;;;;3.64;100.00;100784.31;5022212;28;20513;-76
2023/12/30 05:42:31;;;;;;;0.30;0.30;;;;;;;3.60;100.00;100767.75;5004154;28;20507;-76
2023/12/30 05:44:57;;;;;;;4.68;4.38;;;;;;;4.24;100.00;100865.09;5031941;28;20079;-76
2023/12/30 05:47:23;;;;;;;0.40;0.40;;;;;;;3.44;100.00;100762.88;5020772;28;20038;-76
2023/12/30 05:49:49;;;;;;;1.00;0.63;;;;;;;3.65;100.00;100768.78;5029598;28;23040;-76
2023/12/30 05:52:15;;;;;;;1.45;1.35;;;;;;;4.19;100.00;100869.22;4991554;28;20042;-75
2023/12/30 05:54:40;;;;;;;0.85;0.50;;;;;;;3.70;100.00;100780.22;5024187;28;20379;-77
2023/12/30 05:57:06;;;;;;;7.63;7.03;;;;;;;3.95;100.00;100864.09;5026141;28;20097;-76
2023/12/30 05:59:32;;;;;;;1.50;1.42;;;;;;;3.47;100.00;100779.44;5021497;28;20132;-75
2023/12/30 06:01:58;;;;;;;0.30;0.30;;;;;;;3.06;100.00;100700.19;5029026;28;20608;-76
2023/12/30 06:04:25;;;;;;;0.63;0.63;;;;;;;4.16;100.00;100892.50;5028251;28;20029;-77
2023/12/30 06:06:51;;;;;;;14.90;7.18;;;;;;;3.45;100.00;100780.22;5029971;28;20492;-76
2023/12/30 06:09:16;;;;;;;0.60;0.60;;;;;;;3.53;100.00;100786.53;5021112;28;20045;-76
2023/12/30 06:11:42;;;;;;;0.52;0.52;;;;;;;3.27;100.00;100737.22;5024473;28;20553;-75
2023/12/30 06:14:07;;;;;;;1.70;1.65;;;;;;;3.79;100.00;100815.97;5024576;28;20134;-76
2023/12/30 06:16:33;;;;;;;0.52;0.52;;;;;;;4.25;100.00;100905.81;5019406;28;20482;-76
2023/12/30 06:18:58;;;;;;;0.50;0.50;;;;;;;3.45;100.00;100783.69;5021320;28;20030;-75
2023/12/30 06:21:24;;;;;;;3.28;3.03;;;;;;;4.20;100.00;100895.25;5024242;28;20054;-76
2023/12/30 06:23:49;;;;;;;0.63;0.63;;;;;;;4.09;100.00;100867.16;5029602;28;20140;-77
2023/12/30 06:26:15;;;;;;;2.03;1.85;;;;;;;3.55;100.00;100769.31;5019330;28;20057;-77
2023/12/30 06:28:42;;;;;;;1.05;1.05;;;;;;;3.44;100.00;100783.63;5016999;28;20041;-77
2023/12/30 06:31:07;;;;;;;1.75;1.65;;;;;;;4.08;100.00;100897.44;5025034;28;20052;-75
2023/12/30 06:33:33;;;;;;;1.65;1.55;;;;;;;4.20;100.00;100921.22;5019700;28;20058;-75
2023/12/30 06:35:58;;;;;;;13.95;13.20;;;;;;;3.73;100.00;100852.09;5019327;28;20120;-77
2023/12/30 06:38:24;;;;;;;0.30;0.30;;;;;;;3.96;100.00;100900.50;5018909;28;20045;-76
2023/12/30 06:40:49;;;;;;;0.30;0.30;;;;;;;3.52;100.00;100824.56;5013263;28;20127;-77
2023/12/30 06:43:16;;;;;;;2.55;2.45;;;;;;;3.88;100.00;100888.09;5015243;28;20093;-77
2023/12/30 06:45:42;;;;;;;0.50;0.50;;;;;;;3.27;100.00;100776.13;5004290;28;20756;-77
2023/12/30 06:48:08;;;;;;;2.55;2.45;;;;;;;3.69;100.00;100839.84;5021833;28;20060;-77
2023/12/30 06:50:34;;;;;;;1.60;1.50;;;;;;;3.32;100.00;100810.00;5021431;28;20494;-76
2023/12/30 06:53:01;;;;;;;0.93;0.93;;;;;;;4.11;100.00;100918.31;5015772;28;20534;-77
2023/12/30 06:55:28;;;;;;;1.42;1.38;;;;;;;4.09;100.00;100907.00;5027355;28;20045;-76
2023/12/30 06:57:53;;;;;;;0.75;0.75;;;;;;;3.79;100.00;100925.88;5024825;28;20057;-76
2023/12/30 07:00:20;;;;;;;3.10;2.95;;;;;;;4.01;100.00;100924.91;5026103;28;20505;-75
2023/12/30 07:02:45;;;;;;;0.50;0.50;;;;;;;3.79;100.00;100891.22;5019823;28;20053;-76
2023/12/30 07:05:11;;;;;;;1.15;1.10;;;;;;;3.68;100.00;100914.22;5029599;28;20041;-76
2023/12/30 07:07:37;;;;;;;3.65;3.40;;;;;;;3.30;100.00;100804.78;5016499;28;20179;-76
2023/12/30 07:10:07;;;;;;;0.30;0.30;;;;;;;3.92;100.00;100903.81;5025423;28;20041;-76
2023/12/30 07:12:33;;;;;;;0.40;0.40;;;;;;;4.08;100.00;100922.53;5011903;28;20595;-75
2023/12/30 07:14:58;;;;;;;2.05;1.95;;;;;;;3.91;100.00;100920.25;5022509;28;20099;-77
2023/12/30 07:17:25;;;;;;;0.93;0.93;;;;;;;3.97;100.00;100936.00;5029217;28;20076;-76
2023/12/30 07:19:51;;;;;;;0.75;0.75;;;;;;;3.98;100.00;100913.53;5020347;28;20135;-76
2023/12/30 07:22:19;;;;;;;1.70;1.60;;;;;;;3.47;100.00;100827.84;5037189;28;20033;-77
2023/12/30 07:24:45;;;;;;;1.50;1.20;;;;;;;2.99;100.00;100840.78;5003922;28;20771;-77
2023/12/30 07:27:12;;;;;;;0.60;0.55;;;;;;;3.84;100.00;100913.06;5017297;28;20048;-76
2023/12/30 07:29:37;;;;;;;6.38;5.97;;;;;;;3.31;100.00;100824.69;5016892;28;20114;-75
2023/12/30 07:32:03;;;;;;;1.20;1.15;;;;;;;3.34;100.00;100818.72;5020285;28;20512;-76
2023/12/30 07:34:29;;;;;;;1.75;1.65;;;;;;;3.93;100.00;100912.47;5014595;28;20037;-75
2023/12/30 07:36:56;;;;;;;4.32;4.10;;;;;;;4.02;100.00;100924.06;5017049;28;20037;-76
2023/12/30 07:39:22;;;;;;;0.82;0.82;;;;;;;8.05;100.00;100955.72;5013465;28;20057;-68
2023/12/30 07:41:47;;;;;;;0.30;0.30;;;;;;;8.49;100.00;100949.59;5009495;28;20048;-66
2023/12/30 07:44:14;;;;;;;0.93;0.93;;;;;;;7.55;100.00;100932.09;5001243;28;20057;-67
2023/12/30 07:46:39;;;;;;;0.30;0.30;;;;;;;8.48;100.00;100924.31;5016057;28;20485;-67
2023/12/30 07:49:05;;;;;;;0.65;0.65;;;;;;;9.15;100.00;100911.34;5021689;28;20045;-68
2023/12/30 07:51:30;;;;;;;0.30;0.30;;;;;;;8.68;100.00;100833.06;5016725;28;20104;-68
2023/12/30 07:53:56;;;;;;;3.75;2.47;;;;;;;8.10;100.00;100763.31;5018932;28;20050;-69
2023/12/30 07:56:21;;;;;;;3.50;2.05;;;;;;;8.49;100.00;100892.06;5027107;28;20080;-68
2023/12/30 07:58:47;;;;;;;1.02;1.02;;;;;;;11.30;100.00;100868.75;5023887;28;20374;-68
2023/12/30 08:01:12;;;;;;;0.85;0.85;;;;;;;9.03;100.00;100719.22;5028995;28;20543;-67
2023/12/30 08:03:38;;;;;;;3.22;2.92;;;;;;;8.56;100.00;100875.59;5023459;28;20132;-66
2023/12/30 08:06:03;;;;;;;0.57;0.57;;;;;;;8.92;100.00;100874.38;5018194;28;20396;-67
2023/12/30 08:08:29;;;;;;;1.75;1.65;;;;;;;10.55;100.00;100898.06;5020829;28;20053;-68
2023/12/30 08:10:55;;;;;;;0.85;0.85;;;;;;;8.69;100.00;100796.47;5017299;28;20069;-68
2023/12/30 08:13:20;;;;;;;0.57;0.57;;;;;;;8.89;100.00;100801.94;5024752;28;20107;-66
2023/12/30 08:15:46;;;;;;;0.60;0.60;;;;;;;9.75;100.00;100910.38;5020526;28;20046;-68
2023/12/30 08:18:11;;;;;;;5.00;1.30;;;;;;;7.94;100.00;100863.22;5012512;28;20528;-77
2023/12/30 08:20:37;;;;;;;5.15;3.63;;;;;;;5.90;100.00;100856.97;5005923;28;20104;-75
2023/12/30 08:23:03;;;;;;;9.25;8.38;;;;;;;5.63;100.00;100891.81;5026546;28;20662;-77
2023/12/30 08:25:29;;;;;;;1.88;1.77;;;;;;;5.95;100.00;100886.66;5016199;28;20038;-75
2023/12/30 08:27:54;;;;;;;8.55;7.72;;;;;;;5.79;100.00;100903.53;5021155;28;20083;-76
2023/12/30 08:30:20;;;;;;;0.60;0.60;;;;;;;5.39;100.00;100828.69;5024149;28;20064;-77
2023/12/30 08:32:47;;;;;;;1.70;1.60;;;;;;;5.83;100.00;100907.09;5024085;28;20453;-76
2023/12/30 08:35:13;;;;;;;0.55;0.55;;;;;;;5.69;100.00;100884.19;5020886;28;20049;-77
2023/12/30 08:37:38;;;;;;;4.47;3.40;;;;;;;4.71;100.00;100790.34;5021724;28;20065;-76
2023/12/30 08:40:10;;;;;;;2.15;2.05;;;;;;;4.80;100.00;100826.09;5019370;28;20044;-76
2023/12/30 08:42:36;;;;;;;4.70;4.32;;;;;;;4.84;100.00;100804.56;5020655;28;20069;-77
2023/12/30 08:45:04;;;;;;;1.05;0.82;;;;;;;4.82;100.00;100832.22;5027244;28;20053;-77
2023/12/30 08:47:34;;;;;;;3.80;3.55;;;;;;;4.78;100.00;100778.41;5023800;28;20543;-77
2023/12/30 08:50:03;;;;;;;0.95;0.95;;;;;;;5.52;100.00;100898.44;5022258;28;20046;-76
2023/12/30 08:52:29;;;;;;;0.82;0.82;;;;;;;5.31;100.00;100849.25;5021035;28;20447;-76
2023/12/30 08:54:55;;;;;;;4.38;4.13;;;;;;;5.17;100.00;100815.06;5013982;28;20029;-76
2023/12/30 08:57:21;;;;;;;1.52;1.42;;;;;;;5.20;100.00;100783.94;5019648;28;20140;-76
2023/12/30 08:59:48;;;;;;;0.88;0.85;;;;;;;5.49;100.00;100836.78;5022934;28;20136;-78
2023/12/30 09:02:15;;;;;;;3.70;3.50;;;;;;;5.65;100.00;100868.44;5020114;28;20045;-77
2023/12/30 09:04:41;;;;;;;0.85;0.85;;;;;;;4.90;100.00;100788.28;5014200;28;20037;-77
2023/12/30 09:07:06;;;;;;;1.67;1.58;;;;;;;5.65;100.00;100884.06;5017586;28;20077;-76
2023/12/30 09:09:32;;;;;;;5.47;5.18;;;;;;;4.87;100.00;100802.06;5018025;28;20518;-76
2023/12/30 09:11:57;;;;;;;11.43;10.35;;;;;;;4.53;100.00;100758.59;5022792;28;20045;-77
2023/12/30 09:14:24;;;;;;;0.57;0.57;;;;;;;4.79;100.00;100747.25;5016544;28;20063;-77
2023/12/30 09:16:49;;;;;;;0.70;0.70;;;;;;;5.67;100.00;100859.84;5020327;28;20054;-76
2023/12/30 09:19:15;;;;;;;1.65;1.55;;;;;;;5.72;100.00;100854.75;5024521;28;20038;-77
2023/12/30 09:21:40;;;;;;;4.70;4.45;;;;;;;5.53;100.00;100809.13;5016926;28;20815;-76
2023/12/30 09:24:06;;;;;;;2.35;2.20;;;;;;;5.78;100.00;100846.19;5020755;28;20087;-78
2023/12/30 09:26:32;;;;;;;8.02;7.47;;;;;;;5.79;100.00;100822.81;5018471;28;20485;-76
2023/12/30 09:28:57;;;;;;;0.38;0.38;;;;;;;6.22;100.00;100838.69;5021137;28;20104;-75
2023/12/30 09:31:27;;;;;;;7.38;6.10;;;;;;;6.09;100.00;100835.78;5002721;28;20034;-77
2023/12/30 09:33:52;;;;;;;6.00;5.65;;;;;;;5.75;100.00;100773.22;5019173;28;20137;-78
2023/12/30 09:36:18;;;;;;;2.05;0.85;;;;;;;6.14;100.00;100812.44;5015187;28;20528;-77
2023/12/30 09:38:44;;;;;;;1.65;0.82;;;;;;;5.82;100.00;100736.97;5018489;28;20136;-78
2023/12/30 09:41:09;;;;;;;3.58;3.38;;;;;;;5.48;100.00;100629.44;5011780;28;20064;-79
2023/12/30 09:43:36;;;;;;;4.10;3.95;;;;;;;6.68;100.00;100798.94;5025822;28;20530;-77
2023/12/30 09:46:04;;;;;;;2.17;2.08;;;;;;;6.59;100.00;100821.31;5024574;28;20103;-76
2023/12/30 09:48:32;;;;;;;0.75;0.75;;;;;;;6.78;100.00;100796.53;5025501;28;20077;-76
2023/12/30 09:50:57;;;;;;;2.20;2.10;;;;;;;6.09;100.00;100692.50;5021879;28;20053;-77
2023/12/30 09:53:24;;;;;;;1.05;1.05;;;;;;;7.13;100.00;100812.91;5024969;28;20759;-78
2023/12/30 09:55:51;;;;;;;3.20;1.58;;;;;;;7.26;100.00;100812.31;5025470;28;20114;-76
2023/12/30 09:58:21;;;;;;;0.50;0.50;;;;;;;6.85;100.00;100720.16;5025257;28;20528;-77
2023/12/30 10:00:46;;;;;;;6.68;6.13;;;;;;;7.32;100.00;100786.31;5016767;28;20042;-77
2023/12/30 10:03:14;;;;;;;15.65;4.68;;;;;;;7.57;100.00;100798.09;5025501;28;20057;-78
2023/12/30 10:05:40;;;;;;;1.65;1.55;;;;;;;7.01;100.00;100722.22;5018504;28;20239;-79
2023/12/30 10:08:07;;;;;;;1.08;1.08;;;;;;;7.24;100.00;100714.84;5023590;28;20034;-76
2023/12/30 10:10:44;;;;;;;2.50;2.30;;;;;;;7.10;100.00;100690.22;5028271;28;20035;-78
2023/12/30 10:13:11;;;;;;;5.30;5.00;;;;;;;7.78;100.00;100791.53;5023953;28;20059;-77
2023/12/30 10:15:38;;;;;;;2.42;2.22;;;;;;;7.13;100.00;100735.50;5024064;28;20501;-77
2023/12/30 10:18:06;;;;;;;10.43;9.52;;;;;;;6.87;100.00;100656.75;5017129;28;20046;-77
2023/12/30 10:20:32;;;;;;;8.02;7.57;;;;;;;7.66;100.00;100789.56;5021828;28;22001;-79
2023/12/30 10:22:58;;;;;;;6.60;6.00;;;;;;;7.76;100.00;100808.88;5024085;28;20061;-78
2023/12/30 10:25:23;;;;;;;1.23;1.15;;;;;;;7.68;100.00;100810.47;5020090;28;20038;-76
2023/12/30 10:27:49;;;;;;;1.50;1.40;;;;;;;7.54;100.00;100781.53;5014042;28;20088;-74
2023/12/30 10:30:20;;;;;;;0.80;0.80;;;;;;;7.47;100.00;100790.06;5021661;28;20092;-75
2023/12/30 10:32:47;;;;;;;9.38;7.90;;;;;;;7.88;100.00;100792.56;5015129;28;20048;-76
2023/12/30 10:35:16;;;;;;;9.57;4.88;;;;;;;7.57;100.00;100695.41;5017808;28;20057;-76
2023/12/30 10:37:42;;;;;;;0.95;0.93;;;;;;;8.36;100.00;100775.91;5019279;28;20121;-76
2023/12/30 10:40:09;;;;;;;1.20;1.13;;;;;;;8.39;100.00;100789.00;5016258;28;20457;-77
2023/12/30 10:42:36;;;;;;;2.03;1.85;;;;;;;8.65;100.00;100782.44;5023585;28;20538;-73
2023/12/30 10:45:01;;;;;;;0.85;0.68;;;;;;;7.81;100.00;100619.16;5019269;28;20057;-72
2023/12/30 10:47:28;;;;;;;2.47;1.60;;;;;;;9.08;100.00;100789.97;5016053;28;20053;-73
2023/12/30 10:50:04;;;;;;;3.10;2.90;;;;;;;9.30;100.00;100783.25;5022394;28;20069;-74
2023/12/30 10:52:34;;;;;;;3.42;3.22;;;;;;;9.16;100.00;100720.25;5012298;28;20424;-74
2023/12/30 10:55:08;;;;;;;3.72;3.50;;;;;;;10.17;100.00;100780.56;5016406;28;20042;-75
2023/12/30 10:57:39;;;;;;;1.83;1.70;;;;;;;9.92;100.00;100706.09;5020344;28;20107;-74
2023/12/30 11:00:09;;;;;;;11.07;8.35;;;;;;;10.41;100.00;100777.25;5018239;28;20096;-74
2023/12/30 11:02:38;;;;;;;2.45;2.35;;;;;;;10.07;100.00;100687.00;5010820;28;20431;-77
2023/12/30 11:05:11;;;;;;;8.77;7.82;;;;;;;10.00;100.00;100750.75;5022416;28;20145;-74
2023/12/30 11:07:37;;;;;;;0.30;0.30;;;;;;;10.61;100.00;100766.03;5017456;28;20089;-77
2023/12/30 11:10:22;;;;;;;2.15;2.05;;;;;;;10.41;100.00;100776.41;5015347;28;20199;-73
2023/12/30 11:12:50;;;;;;;1.30;1.20;;;;;;;10.55;100.00;100738.00;5018553;28;20171;-77
2023/12/30 11:15:26;;;;;;;5.07;4.70;;;;;;;10.69;100.00;100732.81;4999860;28;20076;-77
2023/12/30 11:17:51;;;;;;;12.10;7.40;;;;;;;10.77;100.00;100752.13;5016695;28;20072;-74
2023/12/30 11:20:32;;;;;;;1.05;0.93;;;;;;;9.94;100.00;100671.16;5013591;28;20126;-74